This is the latest recevied weather packets stored in our database for station/object N5ATR. If no packets are shown the sender has not sent any weather packets the latest 10 day(s).
| Time | Temp. | Humidity | Pressure | Rain* | Wind** | Luminosity | Snow |
|---|---|---|---|---|---|---|---|
| 1778134306 | 5.56° C | 42% | 1019.2 hPa | 0 mm | - | 0 W/m² | - |
| 1778134004 | 5° C | 45% | 1019 hPa | 0 mm | - | 0 W/m² | - |
| 1778133700 | 3.89° C | 52% | 1019.1 hPa | 0 mm | - | 0 W/m² | - |
| 1778133396 | 3.89° C | 56% | 1019.1 hPa | 0 mm | - | 0 W/m² | - |
| 1778133092 | 4.44° C | 56% | 1019 hPa | 0 mm | - | 0 W/m² | - |
| 1778132788 | 4.44° C | 54% | 1019.2 hPa | 0 mm | - | 0 W/m² | - |
| 1778132485 | 4.44° C | 55% | 1019.2 hPa | 0 mm | - | 0 W/m² | - |
| 1778132183 | 4.44° C | 54% | 1019.2 hPa | 0 mm | - | 0 W/m² | - |
| 1778131881 | 4.44° C | 52% | 1019.2 hPa | 0 mm | - | 0 W/m² | - |
| 1778131579 | 3.89° C | 55% | 1019.1 hPa | 0 mm | - | 0 W/m² | - |
| 1778131275 | 3.89° C | 59% | 1019.1 hPa | 0 mm | - | 0 W/m² | - |
| 1778130973 | 4.44° C | 59% | 1019 hPa | 0 mm | - | 0 W/m² | - |
| 1778130670 | 5° C | 59% | 1019.1 hPa | 0 mm | - | 0 W/m² | - |
| 1778130366 | 5.56° C | 55% | 1019.2 hPa | 0 mm | - | 0 W/m² | - |
| 1778130063 | 7.22° C | 49% | 1019 hPa | 0 mm | - | 0 W/m² | - |
| 1778129760 | 7.78° C | 44% | 1019 hPa | 0 mm | - | 0 W/m² | - |
| 1778129457 | 7.78° C | 44% | 1018.8 hPa | 0 mm | - | 0 W/m² | - |
| 1778129153 | 7.78° C | 44% | 1018.8 hPa | 0 mm | - | 0 W/m² | - |
| 1778128850 | 7.78° C | 44% | 1018.7 hPa | 0 mm | - | 0 W/m² | - |
| 1778128546 | 7.78° C | 45% | 1018.6 hPa | 0 mm | - | 0 W/m² | - |
| 1778128243 | 7.78° C | 46% | 1018.6 hPa | 0 mm | - | 0 W/m² | - |
| 1778127939 | 7.78° C | 47% | 1018.3 hPa | 0 mm | - | 0 W/m² | - |
| 1778127635 | 7.78° C | 48% | 1018.2 hPa | 0 mm | - | 0 W/m² | - |
| 1778127332 | 7.78° C | 50% | 1018.5 hPa | 0 mm | - | 0 W/m² | - |
| 1778127029 | 7.78° C | 52% | 1018.6 hPa | 0 mm | - | 0 W/m² | - |
* Rain latest hour (hover to see other rain measurements)
** Current wind speed in m/s (hover to see current wind gust speed)